createdAt,value
2023-02-16T00:02:40.930Z,10.00
2023-02-16T00:08:03.140Z,9.37
2023-02-16T00:13:47.591Z,10.33
2023-02-16T00:19:22.545Z,9.93
2023-02-16T00:24:44.544Z,9.93
2023-02-16T00:30:18.824Z,9.93
2023-02-16T00:35:45.073Z,9.97
2023-02-16T00:41:35.688Z,10.70
2023-02-16T00:47:27.728Z,9.37
2023-02-16T00:52:52.498Z,8.90
2023-02-16T00:58:29.843Z,10.60
2023-02-16T01:03:52.103Z,10.27
2023-02-16T01:09:38.888Z,9.37
2023-02-16T01:15:01.367Z,9.37
2023-02-16T01:20:26.762Z,9.90
2023-02-16T01:25:49.218Z,8.77
2023-02-16T01:31:14.403Z,9.90
2023-02-16T01:36:45.098Z,10.07
2023-02-16T01:42:13.729Z,9.87
2023-02-16T01:47:48.197Z,9.97
2023-02-16T01:53:22.115Z,8.70
2023-02-16T01:58:50.063Z,8.13
2023-02-16T02:04:39.414Z,8.73
2023-02-16T02:10:32.310Z,8.83
2023-02-16T02:15:58.551Z,9.80
2023-02-16T02:22:02.612Z,9.23
2023-02-16T02:27:26.898Z,9.20
2023-02-16T02:33:08.660Z,9.17
2023-02-16T02:38:38.836Z,9.63
2023-02-16T02:44:07.296Z,8.87
2023-02-16T02:49:29.840Z,8.77
2023-02-16T02:55:11.441Z,8.97
2023-02-16T03:00:47.298Z,9.23
2023-02-16T03:06:21.187Z,9.20
2023-02-16T03:12:05.342Z,8.43
2023-02-16T03:17:53.929Z,9.40
2023-02-16T03:23:35.115Z,8.77
2023-02-16T03:29:17.699Z,8.10
2023-02-16T03:34:40.264Z,9.23
2023-02-16T03:40:24.610Z,7.97
2023-02-16T03:45:47.117Z,9.07
2023-02-16T03:51:09.686Z,8.70
2023-02-16T03:56:31.985Z,8.07
2023-02-16T04:01:54.536Z,8.17
2023-02-16T04:07:16.788Z,8.07
2023-02-16T04:12:39.085Z,9.73
2023-02-16T04:18:01.565Z,8.73
2023-02-16T04:23:23.871Z,9.10
2023-02-16T04:28:46.256Z,8.77
2023-02-16T04:34:09.013Z,9.60
2023-02-16T04:39:32.132Z,8.53
2023-02-16T04:44:54.761Z,8.23
2023-02-16T04:50:17.409Z,8.90
2023-02-16T04:55:39.867Z,8.40
2023-02-16T05:01:02.738Z,8.73
2023-02-16T05:06:25.561Z,9.57
2023-02-16T05:12:06.247Z,8.47
2023-02-16T05:17:28.764Z,8.63
2023-02-16T05:22:50.824Z,8.70
2023-02-16T05:28:13.065Z,9.57
2023-02-16T05:33:35.498Z,10.00
2023-02-16T05:38:57.731Z,8.97
2023-02-16T05:44:20.105Z,9.80
2023-02-16T05:49:44.817Z,9.03
2023-02-16T05:55:07.104Z,9.13
2023-02-16T06:00:33.608Z,10.00
2023-02-16T06:05:58.550Z,8.90
2023-02-16T06:11:35.962Z,9.50
2023-02-16T06:16:58.910Z,9.80
2023-02-16T06:22:21.736Z,9.17
2023-02-16T06:27:44.174Z,10.27
2023-02-16T06:33:06.347Z,11.77
2023-02-16T06:38:28.643Z,11.87
2023-02-16T06:43:52.124Z,10.57
2023-02-16T06:49:20.412Z,10.43
2023-02-16T06:54:43.219Z,9.57
2023-02-16T07:00:07.671Z,10.37
2023-02-16T07:05:30.724Z,9.80
2023-02-16T07:10:53.543Z,10.00
2023-02-16T07:16:16.127Z,10.57
2023-02-16T07:21:38.363Z,10.67
2023-02-16T07:27:00.565Z,10.20
2023-02-16T07:32:23.091Z,11.40
2023-02-16T07:37:45.545Z,11.57
2023-02-16T07:43:08.376Z,12.47
2023-02-16T07:48:31.773Z,11.87
2023-02-16T07:53:54.776Z,11.80
2023-02-16T07:59:17.488Z,12.27
2023-02-16T08:04:40.934Z,12.43
2023-02-16T08:10:03.322Z,13.50
2023-02-16T08:15:25.382Z,12.97
2023-02-16T08:21:03.272Z,14.07
2023-02-16T08:26:29.405Z,13.33
2023-02-16T08:31:53.486Z,14.37
2023-02-16T08:37:16.214Z,16.33
2023-02-16T08:42:38.883Z,16.53
2023-02-16T08:48:03.590Z,14.97
2023-02-16T08:53:28.012Z,16.00
2023-02-16T08:58:50.609Z,15.23
2023-02-16T09:04:13.604Z,15.93
2023-02-16T09:09:35.995Z,15.47
2023-02-16T09:14:58.542Z,16.07
2023-02-16T09:20:21.189Z,17.37
2023-02-16T09:25:43.388Z,17.00
2023-02-16T09:31:27.187Z,16.17
2023-02-16T09:36:51.592Z,15.80
2023-02-16T09:42:28.925Z,16.73
2023-02-16T09:47:54.763Z,18.70
2023-02-16T09:53:36.358Z,17.73
2023-02-16T09:59:19.508Z,18.00
2023-02-16T10:05:13.004Z,17.60
2023-02-16T10:10:47.981Z,16.83
2023-02-16T10:16:19.337Z,17.03
2023-02-16T10:21:47.328Z,16.80
2023-02-16T10:27:15.782Z,16.63
2023-02-16T10:32:53.980Z,16.73
2023-02-16T10:38:20.501Z,16.93
2023-02-16T10:44:08.765Z,15.97
2023-02-16T10:49:35.554Z,16.30
2023-02-16T10:54:58.058Z,16.50
2023-02-16T11:00:29.516Z,16.80
2023-02-16T11:05:53.403Z,17.80
2023-02-16T11:11:17.263Z,17.47
2023-02-16T11:16:40.258Z,17.70
2023-02-16T11:22:02.660Z,17.73
2023-02-16T11:27:24.979Z,17.53
2023-02-16T11:32:47.513Z,18.23
2023-02-16T11:38:31.826Z,17.27
2023-02-16T11:43:56.031Z,17.40
2023-02-16T11:49:27.547Z,17.37
2023-02-16T11:54:57.800Z,17.70
2023-02-16T12:00:22.782Z,17.43
2023-02-16T12:06:05.909Z,16.80
2023-02-16T12:11:37.088Z,16.40
2023-02-16T12:17:18.229Z,15.37
2023-02-16T12:22:50.054Z,16.23
2023-02-16T12:28:25.252Z,16.13
2023-02-16T12:34:09.055Z,16.20
2023-02-16T12:39:41.231Z,16.13
2023-02-16T12:45:11.992Z,14.60
2023-02-16T12:50:36.635Z,14.93
2023-02-16T12:56:02.702Z,14.20
2023-02-16T13:01:33.829Z,14.13
2023-02-16T13:07:06.896Z,15.27
2023-02-16T13:12:34.354Z,18.03
2023-02-16T13:18:25.898Z,14.90
2023-02-16T13:24:01.054Z,16.10
2023-02-16T13:29:23.608Z,13.90
2023-02-16T13:35:08.837Z,14.03
2023-02-16T13:40:52.160Z,14.70
2023-02-16T13:46:26.323Z,13.20
2023-02-16T13:51:50.032Z,14.50
2023-02-16T13:57:14.509Z,14.57
2023-02-16T14:02:55.755Z,13.67
2023-02-16T14:08:31.364Z,13.70
2023-02-16T14:13:54.744Z,14.67
2023-02-16T14:19:22.885Z,12.60
2023-02-16T14:24:56.150Z,14.60
2023-02-16T14:30:22.418Z,13.30
2023-02-16T14:36:14.731Z,12.70
2023-02-16T14:41:39.031Z,12.77
2023-02-16T14:47:23.329Z,13.47
2023-02-16T14:52:48.165Z,13.03
2023-02-16T14:58:23.469Z,12.87
2023-02-16T15:03:56.868Z,12.30
2023-02-16T15:09:24.683Z,12.17
2023-02-16T15:14:57.828Z,11.57
2023-02-16T15:20:27.884Z,12.67
2023-02-16T15:26:39.501Z,10.90
2023-02-16T15:32:06.127Z,11.73
2023-02-16T15:37:34.245Z,12.17
2023-02-16T15:43:10.006Z,12.20
2023-02-16T15:48:37.882Z,12.77
2023-02-16T15:54:06.853Z,12.77
2023-02-16T15:59:37.647Z,13.17
2023-02-16T16:05:03.307Z,14.10
2023-02-16T16:10:35.758Z,12.63
2023-02-16T16:16:02.283Z,13.70
2023-02-16T16:21:29.213Z,12.87
2023-02-16T16:26:55.762Z,14.33
2023-02-16T16:32:25.008Z,12.87
2023-02-16T16:37:51.402Z,12.83
2023-02-16T16:43:18.410Z,12.87
2023-02-16T16:48:52.889Z,13.20
2023-02-16T16:54:36.297Z,12.77
2023-02-16T16:59:58.910Z,11.83
2023-02-16T17:05:21.508Z,13.20
2023-02-16T17:10:44.049Z,12.90
2023-02-16T17:16:26.933Z,12.13
2023-02-16T17:21:49.504Z,12.50
2023-02-16T17:27:12.174Z,13.93
2023-02-16T17:32:34.421Z,13.67
2023-02-16T17:37:57.283Z,14.50
2023-02-16T17:43:21.860Z,14.47
2023-02-16T17:48:44.525Z,14.00
2023-02-16T17:54:10.626Z,14.67
2023-02-16T17:59:34.266Z,7.27
2023-02-16T18:04:57.164Z,15.07
2023-02-16T18:10:32.572Z,14.97
2023-02-16T18:15:57.628Z,14.03
2023-02-16T18:21:20.212Z,14.63
2023-02-16T18:26:42.636Z,15.03
2023-02-16T18:32:05.308Z,14.87
2023-02-16T18:37:27.943Z,14.97
2023-02-16T18:42:51.260Z,14.40
2023-02-16T18:48:13.792Z,14.77
2023-02-16T18:53:37.745Z,13.90
2023-02-16T18:59:00.399Z,16.00
2023-02-16T19:04:22.636Z,13.90
2023-02-16T19:09:45.115Z,13.73
2023-02-16T19:15:08.737Z,15.30
2023-02-16T19:20:31.275Z,14.17
2023-02-16T19:25:54.310Z,14.13
2023-02-16T19:31:23.027Z,14.17
2023-02-16T19:36:45.578Z,13.50
2023-02-16T19:42:07.997Z,15.33
2023-02-16T19:47:30.852Z,14.03
2023-02-16T19:52:53.132Z,14.07
2023-02-16T19:58:15.473Z,13.87
2023-02-16T20:03:38.112Z,14.33
2023-02-16T20:09:01.439Z,13.53
2023-02-16T20:14:23.985Z,13.87
2023-02-16T20:19:46.549Z,13.87
2023-02-16T20:25:09.215Z,14.40
2023-02-16T20:30:32.054Z,14.60
2023-02-16T20:35:54.368Z,14.07
2023-02-16T20:41:18.297Z,14.33
2023-02-16T20:46:41.290Z,13.80
2023-02-16T20:52:04.019Z,15.03
2023-02-16T20:57:27.494Z,13.83
2023-02-16T21:02:50.959Z,13.77
2023-02-16T21:08:13.355Z,13.93
2023-02-16T21:13:37.450Z,14.73
2023-02-16T21:19:00.011Z,14.00
2023-02-16T21:24:22.438Z,14.63
2023-02-16T21:29:44.947Z,16.27
2023-02-16T21:35:07.384Z,15.27
2023-02-16T21:40:48.690Z,15.23
2023-02-16T21:46:12.873Z,15.03
2023-02-16T21:51:38.044Z,15.10
2023-02-16T21:57:00.513Z,14.90
2023-02-16T22:02:23.009Z,14.53
2023-02-16T22:07:46.007Z,15.47
2023-02-16T22:13:08.693Z,14.87
2023-02-16T22:18:31.042Z,15.27
2023-02-16T22:23:54.078Z,13.67
2023-02-16T22:29:16.709Z,14.10
2023-02-16T22:34:39.568Z,13.97
2023-02-16T22:40:02.017Z,13.47
2023-02-16T22:45:24.891Z,15.27
2023-02-16T22:50:57.200Z,14.70
2023-02-16T22:56:20.249Z,15.67
2023-02-16T23:01:42.867Z,15.73
2023-02-16T23:07:05.488Z,15.90
2023-02-16T23:12:28.226Z,14.43
2023-02-16T23:17:50.269Z,15.10
2023-02-16T23:23:12.630Z,15.17
2023-02-16T23:28:36.560Z,14.80
2023-02-16T23:34:01.842Z,15.70
2023-02-16T23:39:24.586Z,14.53
2023-02-16T23:44:47.057Z,16.07
2023-02-16T23:50:09.635Z,16.70
2023-02-16T23:55:32.180Z,16.17
